Svitzer Stanlow — MLNF7 — position and weather

sailwx.info

Track history (hours):
 
Tides and Currents Weather Stations Pressure Air Temp Water Temp Dewpoint Dewpoint Depression Visibility Wind Speed Wind Dir Waves Ship Positions

Svitzer Stanlow

Last reported at 2014-Sep-22 09:16 UTC. Time now 2014-Sep-22 10:16 UTC.
Position N 53°27' W 003°01'.

Length 39 m.

Type: Tug. MMSI: 235010620.

Date/timePositionNaut miles runAvg speedWind from/ knotsBaromVisibWave heightAir tempDewpointWater temp
2014-Sep-22 09:16N 53°27' W 003°01'0 0.2
2014-Sep-22 08:33N 53°27' W 003°01'7 6.5
2014-Sep-22 07:26N 53°32' W 003°10'7 8.1
2014-Sep-22 06:33N 53°27' W 003°02'4 3.1
2014-Sep-22 05:09N 53°23' W 002°60'0 0.4
2014-Sep-22 04:28N 53°23' W 003°00'0 0.0
2014-Sep-22 03:28N 53°23' W 003°00'0 0.0
2014-Sep-22 02:28N 53°23' W 003°00'0 0.0
2014-Sep-22 01:28N 53°23' W 003°00'0 0.0
2014-Sep-22 00:16N 53°23' W 003°00'0 0.0
2014-Sep-21 23:28N 53°23' W 003°00'0 0.0
2014-Sep-21 22:34N 53°23' W 003°00'0 0.0
2014-Sep-21 21:33N 53°23' W 003°00'0 0.0
2014-Sep-21 20:33N 53°23' W 003°00'0 0.0
2014-Sep-21 19:33N 53°23' W 003°00'0 0.0
2014-Sep-21 18:33N 53°23' W 003°00'0 0.0
2014-Sep-21 17:33N 53°23' W 003°00'0 0.0
2014-Sep-21 16:27N 53°23' W 003°00'0 0.0
2014-Sep-21 15:33N 53°23' W 003°00'0 0.0
2014-Sep-21 13:33N 53°23' W 003°00'0 0.0
2014-Sep-21 12:33N 53°23' W 003°00'0 0.0
2014-Sep-21 11:21N 53°23' W 003°00'0 0.0
2014-Sep-21 10:33N 53°23' W 003°00'0 0.0
2014-Sep-21 09:33N 53°23' W 003°00'0 0.0
2014-Sep-21 08:33N 53°23' W 003°00'0 0.0
2014-Sep-21 07:33N 53°23' W 003°00'0 0.0
2014-Sep-21 06:27N 53°23' W 003°00'0 0.0
2014-Sep-21 05:33N 53°23' W 003°00'0 0.0
2014-Sep-21 04:33N 53°23' W 003°00'0 0.0
2014-Sep-21 03:33N 53°23' W 003°00'0 0.0
2014-Sep-21 02:33N 53°23' W 003°00'0 0.0
2014-Sep-21 01:33N 53°23' W 003°00'0 0.0
2014-Sep-21 00:33N 53°23' W 003°00'0 0.0
2014-Sep-20 23:33N 53°23' W 003°00'0 0.0
2014-Sep-20 22:33N 53°23' W 003°00'0 0.1
2014-Sep-20 21:26N 53°23' W 002°60'3 3.7
2014-Sep-20 20:33N 53°26' W 003°01'9 3.9
2014-Sep-20 18:17N 53°31' W 003°13'5 7.4
2014-Sep-20 17:33N 53°29' W 003°05'4 3.5
2014-Sep-20 16:31N 53°26' W 003°01'1 0.9
2014-Sep-20 15:28N 53°25' W 003°00'0 0.0
2014-Sep-20 14:28N 53°25' W 003°00'0 0.0
2014-Sep-20 13:16N 53°25' W 003°00'0 0.0
2014-Sep-20 12:28N 53°25' W 003°00'0 0.0
2014-Sep-20 11:28N 53°25' W 003°00'0 0.0
2014-Sep-20 10:16N 53°25' W 003°00'0 0.0
2014-Sep-20 09:22N 53°25' W 003°00'0 0.0
2014-Sep-20 08:22N 53°25' W 003°00'0 0.0
2014-Sep-20 07:10N 53°25' W 003°00'0 0.0
2014-Sep-20 06:22N 53°25' W 003°00'0 0.0
2014-Sep-20 04:28N 53°25' W 003°00'0 0.0
2014-Sep-20 03:19N 53°25' W 003°00'0 0.0
2014-Sep-20 02:31N 53°25' W 003°00'0 0.0
2014-Sep-20 01:24N 53°25' W 003°00'0 0.0
2014-Sep-20 00:24N 53°25' W 003°00'0 0.0
2014-Sep-19 22:12N 53°25' W 003°00'0 0.0
2014-Sep-19 21:30N 53°25' W 003°00'0 0.0
2014-Sep-19 19:24N 53°25' W 003°00'0 0.0
2014-Sep-19 18:12N 53°25' W 003°00'0 0.0
2014-Sep-19 17:30N 53°25' W 003°00'0 0.0
2014-Sep-19 16:30N 53°25' W 003°00'0 0.0
2014-Sep-19 15:24N 53°25' W 003°00'0 0.0
2014-Sep-19 14:12N 53°25' W 003°00'0 0.0
2014-Sep-19 13:24N 53°25' W 003°00'0 0.0
2014-Sep-19 12:12N 53°25' W 003°00'0 0.0
2014-Sep-19 10:18N 53°25' W 003°00'0 0.0
2014-Sep-19 09:24N 53°25' W 003°00'0 0.0
2014-Sep-19 07:18N 53°25' W 003°00'0 0.0
2014-Sep-19 06:30N 53°25' W 003°00'0 0.0
2014-Sep-19 05:06N 53°25' W 003°00'0 0.0
2014-Sep-19 04:24N 53°25' W 003°00'0 0.0
2014-Sep-19 03:12N 53°25' W 003°00'0 0.0
2014-Sep-19 02:30N 53°25' W 003°00'0 0.0
2014-Sep-19 01:30N 53°25' W 003°00'0 0.0
2014-Sep-19 00:24N 53°25' W 003°00'0 0.0
2014-Sep-18 23:18N 53°25' W 003°00'0 0.0
2014-Sep-18 21:24N 53°25' W 003°00'0 0.0
2014-Sep-18 20:30N 53°25' W 003°00'0 0.0
2014-Sep-18 19:30N 53°25' W 003°00'0 0.0
2014-Sep-18 18:27N 53°25' W 003°00'2 1.8
2014-Sep-18 17:28N 53°27' W 003°01'0 0.4
2014-Sep-18 16:22N 53°27' W 003°01'0 0.6
2014-Sep-18 15:33N 53°27' W 003°02'4 3.5
2014-Sep-18 14:18N 53°23' W 002°60'0 0.0
2014-Sep-18 09:14N 53°23' W 002°60'0 0.0
2014-Sep-18 08:32N 53°23' W 002°60'0 0.0
2014-Sep-18 06:08N 53°23' W 002°60'0 0.0
2014-Sep-18 05:14N 53°23' W 002°60'0 0.0
2014-Sep-18 04:32N 53°23' W 002°60'0 0.0
2014-Sep-18 02:08N 53°23' W 002°60'0 0.0
2014-Sep-17 22:26N 53°23' W 002°60'0 0.0
2014-Sep-17 21:32N 53°23' W 002°60'0 0.0
2014-Sep-17 16:26N 53°23' W 002°60'0 0.0
2014-Sep-17 08:32N 53°23' W 002°60'0 0.1
2014-Sep-17 05:22N 53°23' W 003°00'2 2.0
2014-Sep-17 04:33N 53°24' W 003°01'8 8.0
2014-Sep-17 03:33N 53°31' W 003°07'1 0.7
2014-Sep-17 02:33N 53°32' W 003°08'9 8.9
2014-Sep-17 01:33N 53°24' W 003°00'1 1.5
2014-Sep-17 00:33N 53°23' W 003°00'0 0.0
2014-Sep-16 23:15N 53°23' W 003°00'0 0.0
2014-Sep-16 22:33N 53°23' W 003°00'0 0.0
2014-Sep-16 21:33N 53°23' W 003°00'0 0.0
2014-Sep-16 20:33N 53°23' W 003°00'0 0.0
2014-Sep-16 19:27N 53°23' W 003°00'0 0.0
2014-Sep-16 18:33N 53°23' W 003°00'0 0.0
2014-Sep-16 17:33N 53°23' W 003°00'0 0.0
2014-Sep-16 16:33N 53°23' W 003°00'4 4.4
2014-Sep-16 15:33N 53°27' W 003°01'0 0.1
2014-Sep-16 14:30N 53°27' W 003°01'1 0.9
2014-Sep-16 13:33N 53°27' W 003°02'4 3.8
2014-Sep-16 12:33N 53°24' W 003°00'1 0.9
2014-Sep-16 11:33N 53°23' W 002°60'0 0.0
2014-Sep-16 10:22N 53°23' W 003°00'0 0.0
2014-Sep-16 09:28N 53°23' W 003°00'0 0.0
2014-Sep-16 08:28N 53°23' W 003°00'0 0.0
2014-Sep-16 07:28N 53°23' W 003°00'0 0.0
2014-Sep-16 06:34N 53°23' W 003°00'0 0.0
2014-Sep-16 05:33N 53°23' W 003°00'0 0.0
2014-Sep-16 04:33N 53°23' W 003°00'0 0.0
2014-Sep-16 03:33N 53°23' W 003°00'0 0.0
2014-Sep-16 02:33N 53°23' W 003°00'0 0.0
2014-Sep-16 01:33N 53°23' W 003°00'0 0.0
2014-Sep-16 00:27N 53°23' W 003°00'0 0.0
2014-Sep-15 23:33N 53°23' W 003°00'0 0.0
2014-Sep-15 22:33N 53°23' W 003°00'0 0.0
2014-Sep-15 21:33N 53°23' W 003°00'0 0.0
2014-Sep-15 20:33N 53°23' W 003°00'0 0.0
2014-Sep-15 19:33N 53°23' W 003°00'0 0.0
2014-Sep-15 18:33N 53°23' W 003°00'0 0.0
2014-Sep-15 17:27N 53°23' W 003°00'0 0.0
2014-Sep-15 16:33N 53°23' W 003°00'0 0.0
2014-Sep-15 15:33N 53°23' W 003°00'0 0.0
2014-Sep-15 14:33N 53°23' W 003°00'0 0.0
2014-Sep-15 13:33N 53°23' W 003°00'0 0.0
2014-Sep-15 12:33N 53°23' W 003°00'0 0.0
2014-Sep-15 11:33N 53°23' W 003°00'0 0.0
2014-Sep-15 10:33N 53°23' W 003°00'0 0.0
2014-Sep-15 09:33N 53°23' W 003°00'0 0.0
2014-Sep-15 08:33N 53°23' W 003°00'0 0.0
2014-Sep-15 07:33N 53°23' W 003°00'0 0.0
2014-Sep-15 06:33N 53°23' W 003°00'0 0.0
2014-Sep-15 05:27N 53°23' W 003°00'0 0.0
2014-Sep-15 04:33N 53°23' W 003°00'0 0.0
2014-Sep-15 03:33N 53°23' W 003°00'0 0.0
2014-Sep-15 02:33N 53°23' W 003°00'0 0.0
2014-Sep-15 01:33N 53°23' W 003°00'0 0.0
2014-Sep-15 00:33N 53°23' W 003°00'0 0.0
2014-Sep-14 23:33N 53°23' W 003°00'0 0.0
2014-Sep-14 22:33N 53°23' W 003°00'0 0.0
2014-Sep-14 21:33N 53°23' W 003°00'0 0.0
2014-Sep-14 20:27N 53°23' W 003°00'0 0.0
2014-Sep-14 19:32N 53°23' W 003°00'  
Track history (hours):
 
Tides and Currents Weather Stations Pressure Air Temp Water Temp Dewpoint Dewpoint Depression Visibility Wind Speed Wind Dir Waves Ship Positions

Svitzer Stanlow

Last reported at 2014-Sep-22 09:16 UTC. Time now 2014-Sep-22 10:16 UTC.
Position N 53°27' W 003°01'.

Length 39 m.

Type: Tug. MMSI: 235010620.

Date/timePositionNaut miles runAvg speedWind from/ knotsBaromVisibWave heightAir tempDewpointWater temp
2014-Sep-22 09:16N 53°27' W 003°01'0 0.2
2014-Sep-22 08:33N 53°27' W 003°01'7 6.5
2014-Sep-22 07:26N 53°32' W 003°10'7 8.1
2014-Sep-22 06:33N 53°27' W 003°02'4 3.1
2014-Sep-22 05:09N 53°23' W 002°60'0 0.4
2014-Sep-22 04:28N 53°23' W 003°00'0 0.0
2014-Sep-22 03:28N 53°23' W 003°00'0 0.0
2014-Sep-22 02:28N 53°23' W 003°00'0 0.0
2014-Sep-22 01:28N 53°23' W 003°00'0 0.0
2014-Sep-22 00:16N 53°23' W 003°00'0 0.0
2014-Sep-21 23:28N 53°23' W 003°00'0 0.0
2014-Sep-21 22:34N 53°23' W 003°00'0 0.0
2014-Sep-21 21:33N 53°23' W 003°00'0 0.0
2014-Sep-21 20:33N 53°23' W 003°00'0 0.0
2014-Sep-21 19:33N 53°23' W 003°00'0 0.0
2014-Sep-21 18:33N 53°23' W 003°00'0 0.0
2014-Sep-21 17:33N 53°23' W 003°00'0 0.0
2014-Sep-21 16:27N 53°23' W 003°00'0 0.0
2014-Sep-21 15:33N 53°23' W 003°00'0 0.0
2014-Sep-21 13:33N 53°23' W 003°00'0 0.0
2014-Sep-21 12:33N 53°23' W 003°00'0 0.0
2014-Sep-21 11:21N 53°23' W 003°00'0 0.0
2014-Sep-21 10:33N 53°23' W 003°00'0 0.0
2014-Sep-21 09:33N 53°23' W 003°00'0 0.0
2014-Sep-21 08:33N 53°23' W 003°00'0 0.0
2014-Sep-21 07:33N 53°23' W 003°00'0 0.0
2014-Sep-21 06:27N 53°23' W 003°00'0 0.0
2014-Sep-21 05:33N 53°23' W 003°00'0 0.0
2014-Sep-21 04:33N 53°23' W 003°00'0 0.0
2014-Sep-21 03:33N 53°23' W 003°00'0 0.0
2014-Sep-21 02:33N 53°23' W 003°00'0 0.0
2014-Sep-21 01:33N 53°23' W 003°00'0 0.0
2014-Sep-21 00:33N 53°23' W 003°00'0 0.0
2014-Sep-20 23:33N 53°23' W 003°00'0 0.0
2014-Sep-20 22:33N 53°23' W 003°00'0 0.1
2014-Sep-20 21:26N 53°23' W 002°60'3 3.7
2014-Sep-20 20:33N 53°26' W 003°01'9 3.9
2014-Sep-20 18:17N 53°31' W 003°13'5 7.4
2014-Sep-20 17:33N 53°29' W 003°05'4 3.5
2014-Sep-20 16:31N 53°26' W 003°01'1 0.9
2014-Sep-20 15:28N 53°25' W 003°00'0 0.0
2014-Sep-20 14:28N 53°25' W 003°00'0 0.0
2014-Sep-20 13:16N 53°25' W 003°00'0 0.0
2014-Sep-20 12:28N 53°25' W 003°00'0 0.0
2014-Sep-20 11:28N 53°25' W 003°00'0 0.0
2014-Sep-20 10:16N 53°25' W 003°00'0 0.0
2014-Sep-20 09:22N 53°25' W 003°00'0 0.0
2014-Sep-20 08:22N 53°25' W 003°00'0 0.0
2014-Sep-20 07:10N 53°25' W 003°00'0 0.0
2014-Sep-20 06:22N 53°25' W 003°00'0 0.0
2014-Sep-20 04:28N 53°25' W 003°00'0 0.0
2014-Sep-20 03:19N 53°25' W 003°00'0 0.0
2014-Sep-20 02:31N 53°25' W 003°00'0 0.0
2014-Sep-20 01:24N 53°25' W 003°00'0 0.0
2014-Sep-20 00:24N 53°25' W 003°00'0 0.0
2014-Sep-19 22:12N 53°25' W 003°00'0 0.0
2014-Sep-19 21:30N 53°25' W 003°00'0 0.0
2014-Sep-19 19:24N 53°25' W 003°00'0 0.0
2014-Sep-19 18:12N 53°25' W 003°00'0 0.0
2014-Sep-19 17:30N 53°25' W 003°00'0 0.0
2014-Sep-19 16:30N 53°25' W 003°00'0 0.0
2014-Sep-19 15:24N 53°25' W 003°00'0 0.0
2014-Sep-19 14:12N 53°25' W 003°00'0 0.0
2014-Sep-19 13:24N 53°25' W 003°00'0 0.0
2014-Sep-19 12:12N 53°25' W 003°00'0 0.0
2014-Sep-19 10:18N 53°25' W 003°00'0 0.0
2014-Sep-19 09:24N 53°25' W 003°00'0 0.0
2014-Sep-19 07:18N 53°25' W 003°00'0 0.0
2014-Sep-19 06:30N 53°25' W 003°00'0 0.0
2014-Sep-19 05:06N 53°25' W 003°00'0 0.0
2014-Sep-19 04:24N 53°25' W 003°00'0 0.0
2014-Sep-19 03:12N 53°25' W 003°00'0 0.0
2014-Sep-19 02:30N 53°25' W 003°00'0 0.0
2014-Sep-19 01:30N 53°25' W 003°00'0 0.0
2014-Sep-19 00:24N 53°25' W 003°00'0 0.0
2014-Sep-18 23:18N 53°25' W 003°00'0 0.0
2014-Sep-18 21:24N 53°25' W 003°00'0 0.0
2014-Sep-18 20:30N 53°25' W 003°00'0 0.0
2014-Sep-18 19:30N 53°25' W 003°00'0 0.0
2014-Sep-18 18:27N 53°25' W 003°00'2 1.8
2014-Sep-18 17:28N 53°27' W 003°01'0 0.4
2014-Sep-18 16:22N 53°27' W 003°01'0 0.6
2014-Sep-18 15:33N 53°27' W 003°02'4 3.5
2014-Sep-18 14:18N 53°23' W 002°60'0 0.0
2014-Sep-18 09:14N 53°23' W 002°60'0 0.0
2014-Sep-18 08:32N 53°23' W 002°60'0 0.0
2014-Sep-18 06:08N 53°23' W 002°60'0 0.0
2014-Sep-18 05:14N 53°23' W 002°60'0 0.0
2014-Sep-18 04:32N 53°23' W 002°60'0 0.0
2014-Sep-18 02:08N 53°23' W 002°60'0 0.0
2014-Sep-17 22:26N 53°23' W 002°60'0 0.0
2014-Sep-17 21:32N 53°23' W 002°60'0 0.0
2014-Sep-17 16:26N 53°23' W 002°60'0 0.0
2014-Sep-17 08:32N 53°23' W 002°60'0 0.1
2014-Sep-17 05:22N 53°23' W 003°00'2 2.0
2014-Sep-17 04:33N 53°24' W 003°01'8 8.0
2014-Sep-17 03:33N 53°31' W 003°07'1 0.7
2014-Sep-17 02:33N 53°32' W 003°08'9 8.9
2014-Sep-17 01:33N 53°24' W 003°00'1 1.5
2014-Sep-17 00:33N 53°23' W 003°00'0 0.0
2014-Sep-16 23:15N 53°23' W 003°00'0 0.0
2014-Sep-16 22:33N 53°23' W 003°00'0 0.0
2014-Sep-16 21:33N 53°23' W 003°00'0 0.0
2014-Sep-16 20:33N 53°23' W 003°00'0 0.0
2014-Sep-16 19:27N 53°23' W 003°00'0 0.0
2014-Sep-16 18:33N 53°23' W 003°00'0 0.0
2014-Sep-16 17:33N 53°23' W 003°00'0 0.0
2014-Sep-16 16:33N 53°23' W 003°00'4 4.4
2014-Sep-16 15:33N 53°27' W 003°01'0 0.1
2014-Sep-16 14:30N 53°27' W 003°01'1 0.9
2014-Sep-16 13:33N 53°27' W 003°02'4 3.8
2014-Sep-16 12:33N 53°24' W 003°00'1 0.9
2014-Sep-16 11:33N 53°23' W 002°60'0 0.0
2014-Sep-16 10:22N 53°23' W 003°00'0 0.0
2014-Sep-16 09:28N 53°23' W 003°00'0 0.0
2014-Sep-16 08:28N 53°23' W 003°00'0 0.0
2014-Sep-16 07:28N 53°23' W 003°00'0 0.0
2014-Sep-16 06:34N 53°23' W 003°00'0 0.0
2014-Sep-16 05:33N 53°23' W 003°00'0 0.0
2014-Sep-16 04:33N 53°23' W 003°00'0 0.0
2014-Sep-16 03:33N 53°23' W 003°00'0 0.0
2014-Sep-16 02:33N 53°23' W 003°00'0 0.0
2014-Sep-16 01:33N 53°23' W 003°00'0 0.0
2014-Sep-16 00:27N 53°23' W 003°00'0 0.0
2014-Sep-15 23:33N 53°23' W 003°00'0 0.0
2014-Sep-15 22:33N 53°23' W 003°00'0 0.0
2014-Sep-15 21:33N 53°23' W 003°00'0 0.0
2014-Sep-15 20:33N 53°23' W 003°00'0 0.0
2014-Sep-15 19:33N 53°23' W 003°00'0 0.0
2014-Sep-15 18:33N 53°23' W 003°00'0 0.0
2014-Sep-15 17:27N 53°23' W 003°00'0 0.0
2014-Sep-15 16:33N 53°23' W 003°00'0 0.0
2014-Sep-15 15:33N 53°23' W 003°00'0 0.0
2014-Sep-15 14:33N 53°23' W 003°00'0 0.0
2014-Sep-15 13:33N 53°23' W 003°00'0 0.0
2014-Sep-15 12:33N 53°23' W 003°00'0 0.0
2014-Sep-15 11:33N 53°23' W 003°00'0 0.0
2014-Sep-15 10:33N 53°23' W 003°00'0 0.0
2014-Sep-15 09:33N 53°23' W 003°00'0 0.0
2014-Sep-15 08:33N 53°23' W 003°00'0 0.0
2014-Sep-15 07:33N 53°23' W 003°00'0 0.0
2014-Sep-15 06:33N 53°23' W 003°00'0 0.0
2014-Sep-15 05:27N 53°23' W 003°00'0 0.0
2014-Sep-15 04:33N 53°23' W 003°00'0 0.0
2014-Sep-15 03:33N 53°23' W 003°00'0 0.0
2014-Sep-15 02:33N 53°23' W 003°00'0 0.0
2014-Sep-15 01:33N 53°23' W 003°00'0 0.0
2014-Sep-15 00:33N 53°23' W 003°00'0 0.0
2014-Sep-14 23:33N 53°23' W 003°00'0 0.0
2014-Sep-14 22:33N 53°23' W 003°00'0 0.0
2014-Sep-14 21:33N 53°23' W 003°00'0 0.0
2014-Sep-14 20:27N 53°23' W 003°00'0 0.0
2014-Sep-14 19:32N 53°23' W 003°00'  

Dump ship's entire track history